Time;durP1;ratioP1;P1;durP2;ratioP2;P2;SDS_P1;SDS_P2;PMS_P1;PMS_P2;Temp;Humidity;BMP_temperature;BMP_pressure;BME280_temperature;BME280_humidity;BME280_pressure;Samples;Min_cycle;Max_cycle;Signal;HPM_P1;HPM_P2
2021/08/11 00:01:32;;;;;;;3.93;3.60;;;25.70;53.20;;;;;;4990509;28;20202;-45
2021/08/11 00:03:57;;;;;;;6.33;3.50;;;25.70;53.00;;;;;;4984218;28;20198;-48
2021/08/11 00:06:23;;;;;;;6.67;4.20;;;25.70;53.00;;;;;;4993088;28;20198;-46
2021/08/11 00:08:49;;;;;;;3.80;3.47;;;25.70;53.00;;;;;;4987504;28;20557;-47
2021/08/11 00:11:15;;;;;;;3.97;3.67;;;25.50;53.10;;;;;;4988710;28;20272;-49
2021/08/11 00:13:40;;;;;;;4.67;4.10;;;24.90;54.90;;;;;;4986038;28;20285;-45
2021/08/11 00:16:06;;;;;;;4.70;3.50;;;25.00;54.90;;;;;;4987664;28;20893;-47
2021/08/11 00:18:32;;;;;;;5.10;3.93;;;25.10;54.60;;;;;;4989380;28;20198;-45
2021/08/11 00:20:58;;;;;;;5.97;3.90;;;25.10;54.50;;;;;;4989703;28;20495;-46
2021/08/11 00:23:25;;;;;;;4.03;3.63;;;25.20;54.40;;;;;;4989144;28;20277;-50
2021/08/11 00:25:54;;;;;;;3.80;3.40;;;25.40;54.10;;;;;;4986262;28;20207;-45
2021/08/11 00:28:21;;;;;;;4.00;3.40;;;25.40;53.80;;;;;;4989367;28;20461;-45
2021/08/11 00:30:46;;;;;;;7.93;3.83;;;25.40;53.70;;;;;;4990135;28;20489;-46
2021/08/11 00:33:12;;;;;;;5.30;3.63;;;25.40;53.80;;;;;;4989315;28;20457;-46
2021/08/11 00:35:37;;;;;;;6.10;3.73;;;25.40;53.50;;;;;;4987586;28;20304;-45
2021/08/11 00:38:03;;;;;;;4.13;3.37;;;25.40;53.80;;;;;;4990491;28;20557;-47
2021/08/11 00:40:31;;;;;;;5.33;3.50;;;25.30;54.10;;;;;;4992531;28;20221;-46
2021/08/11 00:42:57;;;;;;;5.00;3.90;;;25.30;54.00;;;;;;4988114;28;20190;-50
2021/08/11 00:45:23;;;;;;;5.10;4.20;;;25.30;53.80;;;;;;4991728;28;20503;-47
2021/08/11 00:47:51;;;;;;;5.70;3.60;;;25.40;53.90;;;;;;4990325;28;20190;-45
2021/08/11 00:50:18;;;;;;;7.00;4.13;;;25.40;53.80;;;;;;4988908;28;20245;-46
2021/08/11 00:52:43;;;;;;;4.40;3.60;;;25.50;53.60;;;;;;4985187;28;20438;-45
2021/08/11 00:55:10;;;;;;;3.60;3.27;;;25.40;53.60;;;;;;4985747;28;20445;-46
2021/08/11 00:57:37;;;;;;;4.30;3.30;;;25.40;53.50;;;;;;4986600;28;20203;-47
2021/08/11 01:00:06;;;;;;;4.97;3.40;;;25.40;53.70;;;;;;4987824;28;21279;-47
2021/08/11 01:02:33;;;;;;;4.00;3.50;;;25.40;54.20;;;;;;4987812;28;20438;-46
2021/08/11 01:05:00;;;;;;;4.70;3.80;;;25.40;53.90;;;;;;4989563;28;20452;-46
2021/08/11 01:07:29;;;;;;;4.47;3.60;;;25.00;54.40;;;;;;4984522;28;20441;-45
2021/08/11 01:09:55;;;;;;;4.20;3.70;;;24.30;56.20;;;;;;4976379;28;20497;-47
2021/08/11 01:12:23;;;;;;;4.13;3.73;;;24.10;56.90;;;;;;4990748;28;20544;-45
2021/08/11 01:14:50;;;;;;;3.60;3.30;;;24.10;56.70;;;;;;4989942;28;20902;-47
2021/08/11 01:17:16;;;;;;;8.20;4.03;;;24.20;56.60;;;;;;4987781;28;20450;-46
2021/08/11 01:19:41;;;;;;;4.03;3.70;;;24.10;56.70;;;;;;4985848;28;20441;-45
2021/08/11 01:22:31;;;;;;;3.83;3.53;;;23.90;57.00;;;;;;4990807;28;20710;-46
2021/08/11 01:25:06;;;;;;;5.43;4.10;;;23.90;57.20;;;;;;4988957;28;20202;-46
2021/08/11 01:28:05;;;;;;;4.20;3.90;;;23.50;58.10;;;;;;4991633;28;20442;-46
2021/08/11 01:30:55;;;;;;;4.50;4.10;;;23.70;57.90;;;;;;4987501;28;20968;-48
2021/08/11 01:33:56;;;;;;;4.30;3.90;;;23.90;57.30;;;;;;4991553;28;20464;-47
2021/08/11 01:36:42;;;;;;;4.93;3.50;;;24.10;56.90;;;;;;4968890;28;20659;-45
2021/08/11 01:39:26;;;;;;;12.47;4.30;;;24.00;57.00;;;;;;4976925;28;20446;-47
2021/08/11 01:41:58;;;;;;;3.90;3.50;;;24.10;57.40;;;;;;4984432;28;20492;-47
2021/08/11 01:44:28;;;;;;;3.60;3.30;;;24.20;56.60;;;;;;4985592;28;20445;-46
2021/08/11 01:46:55;;;;;;;5.07;3.83;;;24.30;56.60;;;;;;4981554;28;20445;-49
2021/08/11 01:49:22;;;;;;;3.80;3.40;;;24.40;56.10;;;;;;4984552;28;20484;-46
2021/08/11 01:51:49;;;;;;;4.27;3.87;;;24.40;55.80;;;;;;4985140;28;20426;-47
2021/08/11 01:54:15;;;;;;;4.00;3.40;;;24.20;56.60;;;;;;4983764;28;20533;-48
2021/08/11 01:56:43;;;;;;;4.43;3.53;;;24.30;56.40;;;;;;4984330;28;20560;-45
2021/08/11 01:59:09;;;;;;;3.90;3.50;;;24.40;56.20;;;;;;4988488;28;20198;-48
2021/08/11 02:01:39;;;;;;;5.23;3.67;;;24.00;56.00;;;;;;4988856;28;20438;-48
2021/08/11 02:04:07;;;;;;;5.07;3.77;;;24.00;56.90;;;;;;4989895;28;20500;-49
2021/08/11 02:06:37;;;;;;;4.70;3.57;;;23.90;57.00;;;;;;4986863;28;20438;-46
2021/08/11 02:09:03;;;;;;;4.00;3.70;;;24.00;56.80;;;;;;4984756;28;20589;-49
2021/08/11 02:11:29;;;;;;;4.47;4.07;;;24.20;56.40;;;;;;4987935;28;20528;-48
2021/08/11 02:13:56;;;;;;;4.03;3.27;;;24.10;56.20;;;;;;4990135;28;20581;-50
2021/08/11 02:16:22;;;;;;;4.13;3.83;;;24.20;56.00;;;;;;4987874;28;20444;-49
2021/08/11 02:18:47;;;;;;;4.30;3.87;;;24.20;55.50;;;;;;4988697;28;20438;-47
2021/08/11 02:21:13;;;;;;;3.53;3.23;;;24.10;55.70;;;;;;4990248;28;20187;-48
2021/08/11 02:23:40;;;;;;;4.40;3.83;;;23.90;55.80;;;;;;4988747;28;20222;-46
2021/08/11 02:26:23;;;;;;;4.30;4.00;;;23.80;56.20;;;;;;4985610;28;20207;-48
2021/08/11 02:29:06;;;;;;;3.97;3.67;;;23.50;56.90;;;;;;4986048;28;20461;-51
2021/08/11 02:31:49;;;;;;;5.20;3.60;;;23.30;57.30;;;;;;4983630;28;20572;-50
2021/08/11 02:34:24;;;;;;;4.03;3.73;;;23.20;57.80;;;;;;4987144;28;20438;-47
2021/08/11 02:36:57;;;;;;;6.70;3.83;;;23.00;58.30;;;;;;4987523;28;20449;-50
2021/08/11 02:39:35;;;;;;;5.10;4.00;;;23.10;58.10;;;;;;4987041;28;21134;-50
2021/08/11 02:42:08;;;;;;;4.67;4.00;;;23.10;58.70;;;;;;4991502;28;20496;-49
2021/08/11 02:44:39;;;;;;;5.20;4.00;;;22.90;58.20;;;;;;4983073;28;20956;-48
2021/08/11 02:47:05;;;;;;;4.53;4.13;;;22.70;59.00;;;;;;4982836;28;20587;-46
2021/08/11 02:49:33;;;;;;;5.17;4.00;;;22.70;59.00;;;;;;4988478;28;20584;-46
2021/08/11 02:52:00;;;;;;;4.57;3.77;;;22.60;59.20;;;;;;4985912;28;20574;-46
2021/08/11 02:54:27;;;;;;;4.53;4.13;;;22.70;59.30;;;;;;4978411;28;20548;-46
2021/08/11 02:56:54;;;;;;;5.00;3.90;;;22.80;58.90;;;;;;4983762;28;20477;-49
2021/08/11 02:59:22;;;;;;;5.13;4.13;;;22.90;58.70;;;;;;4990574;28;20965;-48
2021/08/11 03:01:49;;;;;;;4.53;4.13;;;22.90;58.70;;;;;;4988274;28;20511;-47
2021/08/11 03:04:15;;;;;;;4.13;3.60;;;22.90;58.60;;;;;;4985961;28;20781;-50
2021/08/11 03:06:41;;;;;;;5.20;4.20;;;22.90;58.40;;;;;;4986853;28;20501;-50
2021/08/11 03:09:08;;;;;;;5.77;4.43;;;22.80;58.70;;;;;;4986174;28;20225;-46
2021/08/11 03:11:35;;;;;;;3.73;3.43;;;22.70;58.90;;;;;;4977510;28;20235;-51
2021/08/11 03:14:02;;;;;;;3.80;3.50;;;22.70;59.20;;;;;;4981188;28;20755;-50
2021/08/11 03:16:28;;;;;;;4.60;3.93;;;22.70;59.10;;;;;;4986941;28;20457;-49
2021/08/11 03:18:54;;;;;;;4.20;3.90;;;22.80;59.10;;;;;;4990968;28;20600;-47
2021/08/11 03:21:20;;;;;;;4.80;4.23;;;22.80;58.90;;;;;;4985731;28;20874;-48
2021/08/11 03:23:46;;;;;;;3.80;3.50;;;22.80;58.80;;;;;;4984957;28;20302;-50
2021/08/11 03:26:12;;;;;;;5.87;4.50;;;22.80;58.80;;;;;;4985121;28;21024;-50
2021/08/11 03:28:38;;;;;;;4.60;4.20;;;22.60;59.10;;;;;;4981553;28;20449;-48
2021/08/11 03:31:04;;;;;;;5.03;4.57;;;22.60;59.50;;;;;;4988629;28;20320;-51
2021/08/11 03:33:29;;;;;;;5.47;4.00;;;22.70;59.30;;;;;;4989128;28;20584;-50
2021/08/11 03:35:55;;;;;;;4.40;3.90;;;22.70;59.10;;;;;;4987850;28;20202;-50
2021/08/11 03:38:21;;;;;;;3.87;3.33;;;22.70;59.20;;;;;;4984694;28;20198;-50
2021/08/11 03:40:46;;;;;;;4.80;4.03;;;22.60;59.10;;;;;;4987416;28;20558;-51
2021/08/11 03:43:12;;;;;;;9.10;4.00;;;22.70;59.20;;;;;;4990274;28;20661;-51
2021/08/11 03:45:37;;;;;;;5.83;4.20;;;22.80;58.90;;;;;;4990468;28;20225;-51
2021/08/11 03:48:03;;;;;;;4.30;3.67;;;22.70;59.20;;;;;;4980946;28;20662;-50
2021/08/11 03:50:29;;;;;;;5.47;4.87;;;22.70;59.40;;;;;;4977435;28;20215;-49
2021/08/11 03:52:55;;;;;;;8.23;4.00;;;22.80;58.90;;;;;;4985531;28;20453;-50
2021/08/11 03:55:20;;;;;;;6.77;4.27;;;22.80;59.00;;;;;;4983489;28;20209;-50
2021/08/11 03:57:46;;;;;;;3.90;3.60;;;22.90;58.60;;;;;;4986080;28;20194;-50
2021/08/11 04:00:12;;;;;;;6.50;3.80;;;22.80;58.40;;;;;;4983041;28;20302;-49
2021/08/11 04:02:38;;;;;;;9.13;4.27;;;22.60;59.20;;;;;;4981255;28;20198;-46
2021/08/11 04:05:05;;;;;;;6.90;4.40;;;22.50;59.40;;;;;;4987555;28;20439;-46
2021/08/11 04:07:31;;;;;;;5.80;4.13;;;22.40;59.60;;;;;;4986716;28;20234;-47
2021/08/11 04:09:57;;;;;;;5.40;4.50;;;22.50;59.50;;;;;;4983482;28;20536;-45
2021/08/11 04:12:22;;;;;;;4.50;4.10;;;22.60;59.20;;;;;;4983893;28;20226;-45
2021/08/11 04:14:48;;;;;;;4.07;3.70;;;22.50;59.20;;;;;;4987121;28;20191;-46
2021/08/11 04:17:13;;;;;;;6.67;4.20;;;22.40;59.70;;;;;;4985621;28;20277;-46
2021/08/11 04:19:39;;;;;;;4.53;4.20;;;22.50;59.60;;;;;;4989708;28;20213;-47
2021/08/11 04:22:05;;;;;;;5.20;4.13;;;22.40;59.50;;;;;;4987339;28;20195;-46
2021/08/11 04:24:30;;;;;;;4.60;3.93;;;22.20;59.80;;;;;;4989421;28;20195;-46
2021/08/11 04:26:56;;;;;;;5.83;4.20;;;22.20;60.70;;;;;;4988004;28;20199;-46
2021/08/11 04:29:21;;;;;;;3.90;3.60;;;22.20;60.60;;;;;;4988986;28;20236;-46
2021/08/11 04:31:47;;;;;;;5.97;4.07;;;22.20;60.90;;;;;;4985678;28;20281;-50
2021/08/11 04:34:13;;;;;;;4.90;4.47;;;22.20;59.90;;;;;;4985880;28;20941;-45
2021/08/11 04:36:38;;;;;;;4.30;4.00;;;22.20;60.40;;;;;;4993900;28;20191;-54
2021/08/11 04:39:04;;;;;;;4.03;3.73;;;22.30;60.10;;;;;;4987237;28;20218;-49
2021/08/11 04:41:29;;;;;;;5.20;3.67;;;22.00;60.70;;;;;;4989796;28;20214;-46
2021/08/11 04:43:55;;;;;;;4.83;4.40;;;22.20;61.10;;;;;;4986288;28;20241;-47
2021/08/11 04:46:21;;;;;;;6.70;5.13;;;22.10;61.00;;;;;;4989347;28;20329;-46
2021/08/11 04:48:46;;;;;;;4.30;3.90;;;22.20;60.40;;;;;;4992664;28;20214;-47
2021/08/11 04:51:12;;;;;;;4.50;3.87;;;22.30;60.60;;;;;;4989355;28;20736;-46
2021/08/11 04:53:38;;;;;;;5.60;3.70;;;22.40;60.00;;;;;;4987389;28;20195;-46
2021/08/11 04:56:03;;;;;;;4.63;4.10;;;22.60;59.70;;;;;;4988599;28;20270;-48
2021/08/11 04:58:29;;;;;;;4.60;4.10;;;22.70;59.40;;;;;;4990722;28;20552;-46
2021/08/11 05:00:54;;;;;;;4.23;3.83;;;22.60;59.30;;;;;;4992360;28;20206;-49
2021/08/11 05:03:20;;;;;;;6.40;4.30;;;22.70;59.40;;;;;;4991283;28;20202;-47
2021/08/11 05:05:46;;;;;;;6.00;3.83;;;22.90;59.10;;;;;;4985346;28;20236;-46
2021/08/11 05:08:11;;;;;;;4.43;4.00;;;22.90;58.80;;;;;;4991604;28;20214;-46
2021/08/11 05:10:37;;;;;;;5.03;4.13;;;22.90;58.70;;;;;;4979445;28;20276;-46
2021/08/11 05:13:03;;;;;;;13.93;3.50;;;22.90;58.80;;;;;;4992155;28;20237;-46
2021/08/11 05:15:28;;;;;;;9.90;4.17;;;22.80;59.30;;;;;;4988400;28;20612;-47
2021/08/11 05:17:54;;;;;;;5.90;4.17;;;22.90;59.90;;;;;;4991712;28;20329;-46
2021/08/11 05:20:20;;;;;;;4.90;3.60;;;23.10;59.20;;;;;;4990130;28;20282;-46
2021/08/11 05:22:49;;;;;;;8.70;4.13;;;23.20;58.60;;;;;;4989425;28;20205;-46
2021/08/11 05:25:14;;;;;;;4.23;3.93;;;23.30;58.40;;;;;;4984732;28;20195;-46
2021/08/11 05:27:41;;;;;;;4.00;3.70;;;23.40;57.90;;;;;;4990001;28;20453;-46
2021/08/11 05:30:08;;;;;;;6.63;3.73;;;23.00;58.40;;;;;;4989910;28;20272;-46
2021/08/11 05:32:34;;;;;;;6.10;3.80;;;22.60;59.60;;;;;;4984742;28;20468;-51
2021/08/11 05:35:00;;;;;;;4.00;3.57;;;22.80;59.50;;;;;;4986731;28;20442;-46
2021/08/11 05:37:26;;;;;;;4.13;3.73;;;22.90;59.10;;;;;;4991105;28;20461;-45
2021/08/11 05:39:52;;;;;;;5.50;4.27;;;23.00;58.60;;;;;;4986806;28;20238;-46
2021/08/11 05:42:18;;;;;;;4.97;3.53;;;22.90;58.70;;;;;;4986404;28;20842;-46
2021/08/11 05:44:44;;;;;;;4.23;3.80;;;23.00;58.80;;;;;;4983203;28;20254;-46
2021/08/11 05:47:14;;;;;;;3.73;3.43;;;23.20;58.30;;;;;;4978753;28;20438;-46
2021/08/11 05:49:39;;;;;;;4.60;3.90;;;23.20;58.20;;;;;;4990639;28;20218;-49
2021/08/11 05:52:06;;;;;;;5.13;4.63;;;23.10;58.40;;;;;;4989503;28;20523;-48
2021/08/11 05:54:36;;;;;;;4.40;4.10;;;23.20;58.50;;;;;;4991510;28;20232;-46
2021/08/11 05:57:02;;;;;;;6.20;4.23;;;23.40;58.30;;;;;;4991214;28;20458;-47
2021/08/11 05:59:28;;;;;;;7.93;4.33;;;23.60;57.90;;;;;;4987022;28;20446;-46
2021/08/11 06:01:54;;;;;;;3.73;3.40;;;23.80;57.50;;;;;;4986816;28;20458;-47
2021/08/11 06:04:22;;;;;;;4.13;3.70;;;23.90;57.30;;;;;;4983434;28;20442;-47
2021/08/11 06:06:48;;;;;;;4.33;4.00;;;24.00;57.20;;;;;;4987975;28;20206;-47
2021/08/11 06:09:13;;;;;;;6.78;4.10;;;24.10;57.00;;;;;;4984834;28;20448;-50
2021/08/11 06:11:39;;;;;;;4.97;4.03;;;24.30;56.90;;;;;;4990673;28;20306;-46
2021/08/11 06:14:05;;;;;;;5.27;3.80;;;24.30;56.70;;;;;;4991659;28;20226;-47
2021/08/11 06:16:30;;;;;;;3.90;3.60;;;24.20;57.10;;;;;;4987459;28;20677;-47
2021/08/11 06:18:57;;;;;;;5.97;4.20;;;24.20;57.30;;;;;;4990858;28;20558;-45
2021/08/11 06:21:24;;;;;;;6.07;4.30;;;24.20;57.50;;;;;;4987809;28;20191;-47
2021/08/11 06:23:51;;;;;;;5.63;3.93;;;24.00;57.90;;;;;;4983905;28;20912;-46
2021/08/11 06:26:17;;;;;;;4.37;3.57;;;23.80;58.30;;;;;;4982514;28;21600;-44
2021/08/11 06:28:43;;;;;;;5.20;3.60;;;23.70;59.00;;;;;;4985147;28;20584;-45
2021/08/11 06:31:09;;;;;;;4.17;3.87;;;24.00;58.60;;;;;;4979120;28;20576;-45
2021/08/11 06:33:34;;;;;;;7.00;4.20;;;24.10;58.20;;;;;;4979218;28;20194;-45
2021/08/11 06:36:00;;;;;;;5.57;4.97;;;24.30;57.80;;;;;;4984722;28;20201;-48
2021/08/11 06:38:25;;;;;;;5.20;3.90;;;24.30;57.60;;;;;;4986989;28;20605;-44
2021/08/11 06:40:51;;;;;;;5.70;4.17;;;24.30;57.70;;;;;;4984816;28;20199;-46
2021/08/11 06:43:18;;;;;;;5.47;4.40;;;24.40;57.90;;;;;;4984508;28;20270;-46
2021/08/11 06:45:43;;;;;;;5.13;4.40;;;24.50;57.80;;;;;;4980830;28;20278;-46
2021/08/11 06:48:09;;;;;;;5.23;4.73;;;24.50;57.60;;;;;;4984750;28;20604;-46
2021/08/11 06:50:35;;;;;;;4.27;3.87;;;24.40;57.90;;;;;;4981739;28;20230;-46
2021/08/11 06:53:00;;;;;;;7.00;3.77;;;24.50;58.00;;;;;;4982138;28;20191;-46
2021/08/11 06:55:26;;;;;;;4.27;3.87;;;24.60;57.80;;;;;;4986185;28;20191;-46
2021/08/11 06:57:51;;;;;;;6.17;4.63;;;24.70;57.60;;;;;;4982481;28;20282;-46
2021/08/11 07:00:18;;;;;;;4.50;4.10;;;24.70;57.40;;;;;;4985182;28;20191;-46
2021/08/11 07:02:45;;;;;;;4.30;3.90;;;24.80;57.40;;;;;;4986022;28;20620;-45
2021/08/11 07:05:11;;;;;;;5.07;4.67;;;24.70;57.40;;;;;;4986709;28;20484;-46
2021/08/11 07:07:36;;;;;;;4.87;4.47;;;24.80;57.40;;;;;;4977800;28;20463;-46
2021/08/11 07:10:03;;;;;;;5.53;3.30;;;24.80;57.30;;;;;;4981360;28;20992;-46
2021/08/11 07:12:29;;;;;;;5.43;4.40;;;24.90;57.30;;;;;;4979673;28;20233;-46
2021/08/11 07:14:54;;;;;;;7.17;4.30;;;25.00;57.40;;;;;;4980702;28;20450;-50
2021/08/11 07:17:20;;;;;;;5.20;4.70;;;25.00;57.30;;;;;;4982512;28;20190;-46
2021/08/11 07:19:46;;;;;;;5.17;4.07;;;25.00;57.50;;;;;;4987846;28;20210;-45
2021/08/11 07:22:11;;;;;;;5.80;4.70;;;25.10;57.50;;;;;;4989113;28;20508;-45
2021/08/11 07:24:37;;;;;;;5.47;4.70;;;25.10;57.30;;;;;;4984170;28;20206;-46
2021/08/11 07:27:04;;;;;;;5.00;4.00;;;24.90;57.20;;;;;;4986244;28;20810;-46
2021/08/11 07:29:30;;;;;;;4.60;4.10;;;24.70;57.70;;;;;;4990377;28;20587;-46
2021/08/11 07:31:55;;;;;;;4.27;3.80;;;24.80;57.30;;;;;;4990970;28;20569;-45
2021/08/11 07:34:21;;;;;;;4.27;3.97;;;25.00;56.80;;;;;;4986789;28;20269;-46
2021/08/11 07:36:46;;;;;;;7.33;4.37;;;25.00;56.00;;;;;;4989557;28;20261;-47
2021/08/11 07:39:12;;;;;;;5.17;4.63;;;25.00;56.00;;;;;;4989993;28;20282;-46
2021/08/11 07:41:38;;;;;;;5.63;4.60;;;25.10;55.90;;;;;;4989718;28;20198;-45
2021/08/11 07:44:04;;;;;;;4.33;3.93;;;25.30;56.10;;;;;;4989114;28;20195;-46
2021/08/11 07:46:29;;;;;;;4.60;4.20;;;25.20;56.20;;;;;;4990621;28;20198;-46
2021/08/11 07:48:55;;;;;;;4.20;3.80;;;25.30;56.10;;;;;;4986868;28;20203;-46
2021/08/11 07:51:21;;;;;;;4.67;3.77;;;25.40;55.90;;;;;;4979949;28;20717;-46
2021/08/11 07:53:46;;;;;;;4.43;3.87;;;25.60;56.00;;;;;;4989513;28;20676;-47
2021/08/11 07:56:12;;;;;;;5.43;4.03;;;25.60;55.40;;;;;;4985127;28;20187;-45
2021/08/11 07:58:37;;;;;;;5.87;3.80;;;25.70;55.00;;;;;;4985628;28;20282;-46
2021/08/11 08:01:03;;;;;;;4.13;3.53;;;25.80;54.90;;;;;;4980586;28;20233;-45
2021/08/11 08:03:29;;;;;;;4.20;3.83;;;25.90;54.70;;;;;;4985758;28;20195;-46
2021/08/11 08:05:54;;;;;;;4.07;3.77;;;26.10;54.70;;;;;;4982581;28;20198;-49
2021/08/11 08:08:20;;;;;;;5.53;4.63;;;26.10;54.60;;;;;;4987509;28;20211;-46
2021/08/11 08:10:46;;;;;;;3.90;3.60;;;26.30;55.10;;;;;;4993177;28;20295;-45
2021/08/11 08:13:12;;;;;;;7.50;4.20;;;26.30;54.80;;;;;;4993352;28;20237;-45
2021/08/11 08:15:37;;;;;;;5.73;3.73;;;26.50;54.20;;;;;;4994176;28;20241;-49
2021/08/11 08:18:04;;;;;;;5.70;4.23;;;26.30;54.30;;;;;;4984485;28;20234;-46
2021/08/11 08:20:30;;;;;;;4.17;3.77;;;26.30;55.00;;;;;;4993074;28;20205;-45
2021/08/11 08:22:56;;;;;;;4.73;4.33;;;26.20;55.00;;;;;;4987981;28;20450;-46
2021/08/11 08:25:23;;;;;;;5.77;4.00;;;26.50;54.40;;;;;;4994002;28;20454;-50
2021/08/11 08:27:53;;;;;;;4.07;3.60;;;26.60;55.10;;;;;;4993464;28;20529;-45
2021/08/11 08:30:20;;;;;;;4.63;3.60;;;26.90;54.50;;;;;;4985980;28;20498;-49
2021/08/11 08:32:46;;;;;;;5.13;3.90;;;27.00;54.10;;;;;;4986507;28;20449;-48
2021/08/11 08:35:12;;;;;;;6.20;3.80;;;27.20;53.80;;;;;;4993932;28;20515;-46
2021/08/11 08:37:38;;;;;;;4.00;3.70;;;27.40;53.60;;;;;;4993462;28;20854;-50
2021/08/11 08:40:14;;;;;;;4.00;3.60;;;27.70;52.70;;;;;;4993798;28;20503;-46
2021/08/11 08:42:42;;;;;;;5.10;3.70;;;27.90;52.30;;;;;;4989273;28;20460;-51
2021/08/11 08:45:09;;;;;;;4.70;4.20;;;28.10;52.30;;;;;;4983821;28;20516;-45
2021/08/11 08:47:37;;;;;;;4.20;3.80;;;28.20;51.40;;;;;;4983934;28;20822;-49
2021/08/11 08:50:05;;;;;;;4.10;3.70;;;28.20;51.00;;;;;;4983410;28;20485;-49
2021/08/11 08:52:32;;;;;;;5.43;3.97;;;28.40;50.20;;;;;;4986647;28;20556;-47
2021/08/11 08:54:59;;;;;;;5.40;3.67;;;28.60;49.80;;;;;;4985258;28;20491;-46
2021/08/11 08:57:26;;;;;;;7.10;3.70;;;28.70;49.50;;;;;;4989390;28;20433;-47
2021/08/11 08:59:52;;;;;;;6.10;3.77;;;28.40;49.50;;;;;;4987106;28;20511;-50
2021/08/11 09:02:18;;;;;;;4.17;3.77;;;28.70;49.70;;;;;;4983022;28;20453;-49
2021/08/11 09:04:43;;;;;;;4.67;4.23;;;28.80;49.90;;;;;;4987864;28;20914;-47
2021/08/11 09:07:14;;;;;;;3.50;3.20;;;28.90;49.10;;;;;;4985515;28;20563;-49
2021/08/11 09:09:39;;;;;;;10.30;4.13;;;29.10;48.70;;;;;;4975681;28;20924;-46
2021/08/11 09:12:13;;;;;;;4.37;4.00;;;29.30;48.90;;;;;;4989208;28;20473;-46
2021/08/11 09:14:45;;;;;;;4.43;3.90;;;29.40;47.60;;;;;;4989511;28;20206;-47
2021/08/11 09:17:34;;;;;;;4.80;3.70;;;29.50;47.30;;;;;;4991010;28;20454;-46
2021/08/11 09:20:00;;;;;;;5.23;4.47;;;29.70;47.40;;;;;;4989179;28;20453;-45
2021/08/11 09:22:26;;;;;;;4.50;4.10;;;29.70;47.80;;;;;;4986696;28;20807;-47
2021/08/11 09:25:05;;;;;;;5.87;3.43;;;29.80;47.60;;;;;;4991749;28;20510;-50
2021/08/11 09:27:33;;;;;;;4.20;3.80;;;29.70;47.00;;;;;;4977314;28;20450;-49
2021/08/11 09:30:04;;;;;;;4.60;4.20;;;29.80;47.60;;;;;;4991381;28;20497;-50
2021/08/11 09:32:30;;;;;;;5.13;4.07;;;29.80;46.70;;;;;;4982271;28;20446;-48
2021/08/11 09:34:56;;;;;;;7.13;4.70;;;29.90;47.00;;;;;;4987451;28;20437;-45
2021/08/11 09:37:40;;;;;;;5.20;3.67;;;30.20;47.00;;;;;;4993380;28;20201;-51
2021/08/11 09:40:14;;;;;;;4.57;4.07;;;30.40;46.70;;;;;;4991521;28;20807;-47
2021/08/11 09:42:41;;;;;;;4.30;3.90;;;30.60;46.50;;;;;;4989634;28;21197;-47
2021/08/11 09:45:09;;;;;;;4.53;4.07;;;30.80;46.00;;;;;;4990699;28;20447;-50
2021/08/11 09:47:36;;;;;;;4.90;4.40;;;30.90;46.50;;;;;;4985632;28;20442;-47
2021/08/11 09:50:07;;;;;;;4.13;3.67;;;31.10;45.80;;;;;;4991507;28;20489;-48
2021/08/11 09:52:50;;;;;;;4.10;3.53;;;31.10;46.00;;;;;;4987127;28;20441;-47
2021/08/11 09:55:17;;;;;;;4.10;3.80;;;31.40;45.00;;;;;;4987273;28;20434;-46
2021/08/11 09:57:44;;;;;;;4.17;3.80;;;31.40;44.20;;;;;;4989671;28;20434;-47
2021/08/11 10:00:14;;;;;;;4.33;3.93;;;31.40;44.00;;;;;;4991121;28;21251;-49
2021/08/11 10:02:43;;;;;;;5.20;4.70;;;31.50;43.90;;;;;;4974011;28;20426;-47
2021/08/11 10:05:29;;;;;;;4.40;4.00;;;31.50;43.90;;;;;;4987715;28;20434;-48
2021/08/11 10:07:55;;;;;;;4.10;3.40;;;31.60;44.10;;;;;;4982471;28;20592;-50
2021/08/11 10:10:21;;;;;;;11.13;4.53;;;31.80;43.20;;;;;;4992886;28;20592;-50
2021/08/11 10:12:48;;;;;;;6.00;4.20;;;31.50;42.90;;;;;;4992047;28;20254;-47
2021/08/11 10:15:14;;;;;;;5.57;3.70;;;31.50;42.60;;;;;;4992518;28;20209;-49
2021/08/11 10:17:41;;;;;;;4.90;3.60;;;31.80;43.60;;;;;;4990337;28;20457;-48
2021/08/11 10:20:08;;;;;;;4.40;4.00;;;32.10;43.50;;;;;;4983812;28;20972;-47
2021/08/11 10:22:36;;;;;;;4.97;3.60;;;32.30;41.70;;;;;;4992226;28;20438;-46
2021/08/11 10:25:03;;;;;;;4.27;3.80;;;32.40;41.50;;;;;;4990728;28;20911;-46
2021/08/11 10:27:32;;;;;;;4.40;4.00;;;32.50;40.80;;;;;;4991259;28;20445;-51
2021/08/11 10:29:58;;;;;;;5.07;4.00;;;32.80;40.80;;;;;;4992387;28;20521;-48
2021/08/11 10:32:25;;;;;;;4.00;3.70;;;32.90;40.10;;;;;;4992322;28;20446;-47
2021/08/11 10:34:54;;;;;;;4.60;3.80;;;33.00;40.80;;;;;;4991348;28;20441;-46
2021/08/11 10:37:23;;;;;;;4.30;3.90;;;33.20;41.00;;;;;;4991567;28;20492;-47
2021/08/11 10:39:49;;;;;;;5.00;3.80;;;33.20;39.90;;;;;;4982632;28;20437;-46
2021/08/11 10:42:15;;;;;;;5.40;3.60;;;33.40;39.80;;;;;;4985918;28;20441;-47
2021/08/11 10:44:43;;;;;;;5.93;4.37;;;33.40;39.20;;;;;;4987214;28;20808;-45
2021/08/11 10:47:10;;;;;;;5.10;3.97;;;33.20;39.60;;;;;;4990804;28;20195;-46
2021/08/11 10:49:55;;;;;;;3.93;3.60;;;33.30;39.00;;;;;;4980363;28;20469;-46
2021/08/11 10:52:21;;;;;;;4.50;4.10;;;33.50;38.90;;;;;;4978653;28;20805;-50
2021/08/11 10:55:01;;;;;;;5.10;4.33;;;33.60;38.60;;;;;;4987055;28;20782;-48
2021/08/11 10:57:36;;;;;;;4.37;4.00;;;33.70;38.70;;;;;;4986142;28;20473;-48
2021/08/11 11:00:08;;;;;;;4.73;4.30;;;33.90;38.40;;;;;;4991255;28;20495;-47
2021/08/11 11:02:40;;;;;;;4.83;4.43;;;34.00;37.90;;;;;;4991092;28;20430;-49
2021/08/11 11:05:08;;;;;;;4.00;3.60;;;34.10;37.70;;;;;;4992257;28;20457;-46
2021/08/11 11:07:34;;;;;;;7.30;3.87;;;34.10;38.00;;;;;;4991240;28;20905;-47
2021/08/11 11:10:24;;;;;;;4.50;4.10;;;34.10;38.00;;;;;;4983289;28;20481;-47
2021/08/11 11:12:50;;;;;;;5.30;4.37;;;34.10;37.90;;;;;;4973659;28;20485;-50
2021/08/11 11:15:16;;;;;;;4.53;3.97;;;34.20;37.80;;;;;;4991491;28;20535;-47
2021/08/11 11:18:11;;;;;;;6.73;4.30;;;34.50;37.50;;;;;;4991078;28;20643;-46
2021/08/11 11:20:37;;;;;;;5.10;4.70;;;34.50;37.00;;;;;;4982618;28;20290;-46
2021/08/11 11:23:05;;;;;;;4.97;4.57;;;34.60;36.60;;;;;;4987799;28;20521;-47
2021/08/11 11:26:13;;;;;;;5.27;4.70;;;34.50;36.30;;;;;;4979198;28;20658;-47
2021/08/11 11:29:04;;;;;;;5.03;4.63;;;34.60;36.70;;;;;;4988819;28;20477;-46
2021/08/11 11:31:51;;;;;;;4.77;4.37;;;34.30;37.00;;;;;;4985996;28;20454;-46
2021/08/11 11:34:33;;;;;;;8.23;4.80;;;34.50;37.20;;;;;;4991997;28;20460;-46
2021/08/11 11:37:02;;;;;;;4.07;3.77;;;34.60;36.60;;;;;;4988773;28;20449;-47
2021/08/11 11:39:29;;;;;;;5.57;4.83;;;34.60;36.20;;;;;;4981693;28;20453;-48
2021/08/11 11:42:07;;;;;;;7.23;4.67;;;34.70;36.70;;;;;;4983733;28;20533;-46
2021/08/11 11:44:42;;;;;;;7.00;4.40;;;34.70;36.30;;;;;;4986579;28;20844;-46
2021/08/11 11:47:11;;;;;;;5.33;4.47;;;34.80;36.90;;;;;;4984738;28;20464;-46
2021/08/11 11:49:37;;;;;;;5.00;4.30;;;34.90;36.80;;;;;;4989409;28;22060;-46
2021/08/11 11:52:04;;;;;;;4.57;4.17;;;34.90;38.00;;;;;;4989954;28;20487;-46
2021/08/11 11:54:32;;;;;;;5.00;4.53;;;34.90;38.50;;;;;;4981184;28;20430;-46
2021/08/11 11:56:58;;;;;;;4.83;4.43;;;35.00;39.10;;;;;;4980902;28;20771;-46
2021/08/11 11:59:25;;;;;;;7.87;4.27;;;35.00;39.30;;;;;;4989476;28;20465;-46
2021/08/11 12:01:52;;;;;;;4.50;4.10;;;35.00;38.80;;;;;;4988936;28;20441;-49
2021/08/11 12:04:24;;;;;;;4.67;3.77;;;34.80;39.40;;;;;;4986222;28;20441;-47
2021/08/11 12:06:50;;;;;;;4.10;3.80;;;34.90;40.10;;;;;;4985548;28;20437;-46
2021/08/11 12:09:16;;;;;;;6.10;4.33;;;35.10;40.30;;;;;;4986258;28;20438;-46
2021/08/11 12:11:41;;;;;;;4.60;4.20;;;35.30;38.40;;;;;;4986564;28;20368;-46
2021/08/11 12:14:07;;;;;;;4.63;4.30;;;35.40;38.20;;;;;;4990129;28;20218;-46
2021/08/11 12:16:35;;;;;;;5.63;4.30;;;35.60;38.00;;;;;;4988898;28;20227;-47
2021/08/11 12:19:21;;;;;;;8.53;5.93;;;35.60;36.00;;;;;;4987981;28;20225;-47
2021/08/11 12:21:48;;;;;;;4.70;4.40;;;35.70;36.70;;;;;;4984827;28;20451;-49
2021/08/11 12:24:15;;;;;;;4.73;4.33;;;35.60;37.20;;;;;;4984490;28;20790;-47
2021/08/11 12:26:40;;;;;;;9.30;4.30;;;35.80;37.30;;;;;;4990383;28;20438;-47
2021/08/11 12:29:20;;;;;;;5.57;4.43;;;35.90;37.20;;;;;;4980280;28;20946;-47
2021/08/11 12:31:47;;;;;;;5.07;4.63;;;36.10;36.30;;;;;;4990829;28;20203;-48
2021/08/11 12:34:13;;;;;;;4.53;4.13;;;36.20;36.60;;;;;;4991958;28;20808;-47
2021/08/11 12:36:41;;;;;;;7.40;4.10;;;36.30;35.90;;;;;;4990955;28;20851;-47
2021/08/11 12:39:12;;;;;;;4.80;4.33;;;36.30;35.40;;;;;;4984043;28;20513;-47
2021/08/11 12:41:46;;;;;;;5.73;4.00;;;36.30;35.00;;;;;;4989281;28;20789;-48
2021/08/11 12:44:14;;;;;;;4.57;4.10;;;36.40;34.60;;;;;;4982669;28;20450;-46
2021/08/11 12:46:43;;;;;;;4.00;3.70;;;36.40;35.00;;;;;;4991261;28;20438;-46
2021/08/11 12:49:38;;;;;;;6.10;4.00;;;36.30;35.60;;;;;;4991274;28;20909;-47
2021/08/11 12:52:04;;;;;;;5.33;3.90;;;36.10;36.10;;;;;;4977314;28;20446;-46